sensor_id;sensor_type;location;lat;lon;timestamp;pressure;altitude;pressure_sealevel;temperature;humidity
60437;BME280;46289;51.992;4.498;2022-11-15T00:01:41;100935.97;;;6.00;100.00
60437;BME280;46289;51.992;4.498;2022-11-15T00:04:17;100936.81;;;5.99;100.00
60437;BME280;46289;51.992;4.498;2022-11-15T00:06:56;100936.03;;;6.02;100.00
60437;BME280;46289;51.992;4.498;2022-11-15T00:09:49;100930.97;;;6.06;100.00
60437;BME280;46289;51.992;4.498;2022-11-15T00:12:33;100935.34;;;6.07;100.00
60437;BME280;46289;51.992;4.498;2022-11-15T00:15:29;100936.34;;;6.11;100.00
60437;BME280;46289;51.992;4.498;2022-11-15T00:18:28;100931.19;;;6.12;100.00
60437;BME280;46289;51.992;4.498;2022-11-15T00:21:19;100932.13;;;6.14;100.00
60437;BME280;46289;51.992;4.498;2022-11-15T00:24:09;100937.38;;;6.16;100.00
60437;BME280;46289;51.992;4.498;2022-11-15T00:26:55;100925.25;;;6.16;100.00
60437;BME280;46289;51.992;4.498;2022-11-15T00:29:46;100923.56;;;6.18;100.00
60437;BME280;46289;51.992;4.498;2022-11-15T00:32:36;100921.16;;;6.26;100.00
60437;BME280;46289;51.992;4.498;2022-11-15T00:35:35;100912.44;;;6.24;100.00
60437;BME280;46289;51.992;4.498;2022-11-15T00:38:44;100915.09;;;6.26;100.00
60437;BME280;46289;51.992;4.498;2022-11-15T00:41:52;100908.16;;;6.26;100.00
60437;BME280;46289;51.992;4.498;2022-11-15T00:44:39;100918.63;;;6.28;100.00
60437;BME280;46289;51.992;4.498;2022-11-15T00:47:30;100906.53;;;6.30;100.00
60437;BME280;46289;51.992;4.498;2022-11-15T00:50:09;100897.94;;;6.32;100.00
60437;BME280;46289;51.992;4.498;2022-11-15T00:53:06;100897.13;;;6.35;100.00
60437;BME280;46289;51.992;4.498;2022-11-15T00:56:19;100909.38;;;6.37;100.00
60437;BME280;46289;51.992;4.498;2022-11-15T00:59:12;100905.94;;;6.38;100.00
60437;BME280;46289;51.992;4.498;2022-11-15T01:01:57;100900.03;;;6.44;100.00
60437;BME280;46289;51.992;4.498;2022-11-15T01:04:47;100902.72;;;6.47;100.00
60437;BME280;46289;51.992;4.498;2022-11-15T01:07:25;100890.69;;;6.50;100.00
60437;BME280;46289;51.992;4.498;2022-11-15T01:10:23;100887.28;;;6.53;100.00
60437;BME280;46289;51.992;4.498;2022-11-15T01:12:57;100897.75;;;6.54;100.00
60437;BME280;46289;51.992;4.498;2022-11-15T01:16:09;100884.88;;;6.59;100.00
60437;BME280;46289;51.992;4.498;2022-11-15T01:18:59;100882.31;;;6.61;100.00
60437;BME280;46289;51.992;4.498;2022-11-15T01:21:43;100879.69;;;6.61;100.00
60437;BME280;46289;51.992;4.498;2022-11-15T01:24:19;100877.13;;;6.62;100.00
60437;BME280;46289;51.992;4.498;2022-11-15T01:26:48;100879.84;;;6.65;100.00
60437;BME280;46289;51.992;4.498;2022-11-15T01:29:18;100876.38;;;6.66;100.00
60437;BME280;46289;51.992;4.498;2022-11-15T01:31:52;100871.34;;;6.72;100.00
60437;BME280;46289;51.992;4.498;2022-11-15T01:34:22;100865.31;;;6.73;100.00
60437;BME280;46289;51.992;4.498;2022-11-15T01:36:52;100863.66;;;6.77;100.00
60437;BME280;46289;51.992;4.498;2022-11-15T01:39:21;100859.38;;;6.79;100.00
60437;BME280;46289;51.992;4.498;2022-11-15T01:41:51;100865.66;;;6.85;100.00
60437;BME280;46289;51.992;4.498;2022-11-15T01:44:40;100852.88;;;6.95;100.00
60437;BME280;46289;51.992;4.498;2022-11-15T01:47:16;100854.59;;;6.94;100.00
60437;BME280;46289;51.992;4.498;2022-11-15T01:49:52;100852.13;;;6.99;100.00
60437;BME280;46289;51.992;4.498;2022-11-15T01:52:25;100842.63;;;7.01;100.00
60437;BME280;46289;51.992;4.498;2022-11-15T01:54:59;100843.47;;;7.00;100.00
60437;BME280;46289;51.992;4.498;2022-11-15T01:57:30;100837.53;;;7.05;100.00
60437;BME280;46289;51.992;4.498;2022-11-15T02:00:00;100845.41;;;7.07;100.00
60437;BME280;46289;51.992;4.498;2022-11-15T02:02:33;100838.63;;;7.13;100.00
60437;BME280;46289;51.992;4.498;2022-11-15T02:05:07;100832.69;;;7.19;100.00
60437;BME280;46289;51.992;4.498;2022-11-15T02:07:37;100825.00;;;7.24;100.00
60437;BME280;46289;51.992;4.498;2022-11-15T02:10:09;100824.22;;;7.28;100.00
60437;BME280;46289;51.992;4.498;2022-11-15T02:12:39;100821.75;;;7.34;100.00
60437;BME280;46289;51.992;4.498;2022-11-15T02:15:10;100821.75;;;7.34;100.00
60437;BME280;46289;51.992;4.498;2022-11-15T02:17:54;100809.81;;;7.43;100.00
60437;BME280;46289;51.992;4.498;2022-11-15T02:20:44;100812.44;;;7.43;100.00
60437;BME280;46289;51.992;4.498;2022-11-15T02:23:37;100809.13;;;7.50;100.00
60437;BME280;46289;51.992;4.498;2022-11-15T02:29:11;100805.84;;;7.58;100.00
60437;BME280;46289;51.992;4.498;2022-11-15T02:31:50;100795.53;;;7.64;100.00
60437;BME280;46289;51.992;4.498;2022-11-15T02:34:28;100796.41;;;7.64;100.00
60437;BME280;46289;51.992;4.498;2022-11-15T02:37:10;100787.91;;;7.71;100.00
60437;BME280;46289;51.992;4.498;2022-11-15T02:39:46;100781.81;;;7.72;100.00
60437;BME280;46289;51.992;4.498;2022-11-15T02:42:23;100784.47;;;7.74;100.00
60437;BME280;46289;51.992;4.498;2022-11-15T02:45:11;100776.78;;;7.80;100.00
60437;BME280;46289;51.992;4.498;2022-11-15T02:47:46;100785.56;;;7.83;100.00
60437;BME280;46289;51.992;4.498;2022-11-15T02:50:21;100783.91;;;7.87;100.00
60437;BME280;46289;51.992;4.498;2022-11-15T02:52:53;100787.53;;;7.92;100.00
60437;BME280;46289;51.992;4.498;2022-11-15T02:55:28;100779.78;;;7.97;100.00
60437;BME280;46289;51.992;4.498;2022-11-15T02:58:12;100774.91;;;8.12;100.00
60437;BME280;46289;51.992;4.498;2022-11-15T03:00:50;100775.91;;;8.17;100.00
60437;BME280;46289;51.992;4.498;2022-11-15T03:03:45;100770.84;;;8.25;100.00
60437;BME280;46289;51.992;4.498;2022-11-15T03:06:24;100768.25;;;8.26;100.00
60437;BME280;46289;51.992;4.498;2022-11-15T03:09:03;100775.50;;;8.39;100.00
60437;BME280;46289;51.992;4.498;2022-11-15T03:11:35;100773.19;;;8.53;100.00
60437;BME280;46289;51.992;4.498;2022-11-15T03:14:14;100768.97;;;8.60;100.00
60437;BME280;46289;51.992;4.498;2022-11-15T03:16:51;100773.38;;;8.62;100.00
60437;BME280;46289;51.992;4.498;2022-11-15T03:19:31;100761.38;;;8.73;100.00
60437;BME280;46289;51.992;4.498;2022-11-15T03:22:04;100756.09;;;8.70;100.00
60437;BME280;46289;51.992;4.498;2022-11-15T03:24:37;100762.44;;;8.83;100.00
60437;BME280;46289;51.992;4.498;2022-11-15T03:27:07;100761.56;;;8.82;100.00
60437;BME280;46289;51.992;4.498;2022-11-15T03:29:41;100761.63;;;8.85;100.00
60437;BME280;46289;51.992;4.498;2022-11-15T03:32:15;100752.97;;;8.90;100.00
60437;BME280;46289;51.992;4.498;2022-11-15T03:34:51;100760.78;;;8.87;100.00
60437;BME280;46289;51.992;4.498;2022-11-15T03:37:27;100757.34;;;8.89;100.00
60437;BME280;46289;51.992;4.498;2022-11-15T03:39:59;100761.03;;;9.00;100.00
60437;BME280;46289;51.992;4.498;2022-11-15T03:42:32;100752.41;;;9.06;100.00
60437;BME280;46289;51.992;4.498;2022-11-15T03:45:13;100762.88;;;9.06;100.00
60437;BME280;46289;51.992;4.498;2022-11-15T03:47:48;100765.50;;;9.06;100.00
60437;BME280;46289;51.992;4.498;2022-11-15T03:50:22;100776.13;;;9.15;100.00
60437;BME280;46289;51.992;4.498;2022-11-15T03:52:54;100773.56;;;9.18;100.00
60437;BME280;46289;51.992;4.498;2022-11-15T03:55:24;100770.06;;;9.17;100.00
60437;BME280;46289;51.992;4.498;2022-11-15T03:57:57;100763.94;;;9.17;100.00
60437;BME280;46289;51.992;4.498;2022-11-15T04:00:33;100756.94;;;9.16;100.00
60437;BME280;46289;51.992;4.498;2022-11-15T04:03:13;100756.00;;;9.11;100.00
60437;BME280;46289;51.992;4.498;2022-11-15T04:05:58;100755.25;;;9.18;100.00
60437;BME280;46289;51.992;4.498;2022-11-15T04:08:33;100757.81;;;9.15;100.00
60437;BME280;46289;51.992;4.498;2022-11-15T04:11:19;100762.25;;;9.21;100.00
60437;BME280;46289;51.992;4.498;2022-11-15T04:14:04;100757.88;;;9.20;100.00
60437;BME280;46289;51.992;4.498;2022-11-15T04:16:42;100753.59;;;9.23;100.00
60437;BME280;46289;51.992;4.498;2022-11-15T04:19:17;100748.41;;;9.26;100.00
60437;BME280;46289;51.992;4.498;2022-11-15T04:22:08;100746.69;;;9.28;100.00
60437;BME280;46289;51.992;4.498;2022-11-15T04:25:04;100740.56;;;9.26;100.00
60437;BME280;46289;51.992;4.498;2022-11-15T04:28:02;100731.03;;;9.31;100.00
60437;BME280;46289;51.992;4.498;2022-11-15T04:30:54;100732.81;;;9.32;100.00
60437;BME280;46289;51.992;4.498;2022-11-15T04:33:32;100734.47;;;9.27;100.00
60437;BME280;46289;51.992;4.498;2022-11-15T04:36:21;100724.13;;;9.36;100.00
60437;BME280;46289;51.992;4.498;2022-11-15T04:39:12;100727.56;;;9.31;100.00
60437;BME280;46289;51.992;4.498;2022-11-15T04:44:35;100744.19;;;9.34;100.00
60437;BME280;46289;51.992;4.498;2022-11-15T04:47:16;100740.69;;;9.37;100.00
60437;BME280;46289;51.992;4.498;2022-11-15T04:50:09;100745.06;;;9.36;100.00
60437;BME280;46289;51.992;4.498;2022-11-15T04:52:57;100757.28;;;9.34;100.00
60437;BME280;46289;51.992;4.498;2022-11-15T04:55:33;100757.28;;;9.34;100.00
60437;BME280;46289;51.992;4.498;2022-11-15T04:58:12;100760.88;;;9.42;100.00
60437;BME280;46289;51.992;4.498;2022-11-15T05:01:07;100764.34;;;9.41;100.00
60437;BME280;46289;51.992;4.498;2022-11-15T05:03:48;100763.53;;;9.45;100.00
60437;BME280;46289;51.992;4.498;2022-11-15T05:06:42;100769.53;;;9.38;100.00
60437;BME280;46289;51.992;4.498;2022-11-15T05:09:24;100781.69;;;9.36;100.00
60437;BME280;46289;51.992;4.498;2022-11-15T05:12:23;100776.50;;;9.38;100.00
60437;BME280;46289;51.992;4.498;2022-11-15T05:15:16;100771.25;;;9.38;100.00
60437;BME280;46289;51.992;4.498;2022-11-15T05:17:54;100771.28;;;9.39;100.00
60437;BME280;46289;51.992;4.498;2022-11-15T05:20:49;100767.06;;;9.47;100.00
60437;BME280;46289;51.992;4.498;2022-11-15T05:23:39;100772.25;;;9.44;100.00
60437;BME280;46289;51.992;4.498;2022-11-15T05:32:12;100764.50;;;9.50;100.00
60437;BME280;46289;51.992;4.498;2022-11-15T05:34:56;100766.22;;;9.50;100.00
60437;BME280;46289;51.992;4.498;2022-11-15T05:37:34;100757.50;;;9.49;100.00
60437;BME280;46289;51.992;4.498;2022-11-15T05:40:27;100765.44;;;9.56;100.00
60437;BME280;46289;51.992;4.498;2022-11-15T05:43:13;100764.47;;;9.49;100.00
60437;BME280;46289;51.992;4.498;2022-11-15T05:46:12;100760.91;;;9.45;100.00
60437;BME280;46289;51.992;4.498;2022-11-15T05:49:02;100769.56;;;9.41;100.00
60437;BME280;46289;51.992;4.498;2022-11-15T05:52:01;100764.22;;;9.32;100.00
60437;BME280;46289;51.992;4.498;2022-11-15T05:54:51;100762.47;;;9.33;100.00
60437;BME280;46289;51.992;4.498;2022-11-15T05:57:44;100771.09;;;9.27;100.00
60437;BME280;46289;51.992;4.498;2022-11-15T06:00:30;100778.09;;;9.28;100.00
60437;BME280;46289;51.992;4.498;2022-11-15T06:03:27;100783.34;;;9.28;100.00
60437;BME280;46289;51.992;4.498;2022-11-15T06:06:04;100791.06;;;9.21;100.00
60437;BME280;46289;51.992;4.498;2022-11-15T06:09:05;100786.69;;;9.21;100.00
60437;BME280;46289;51.992;4.498;2022-11-15T06:11:41;100793.59;;;9.16;100.00
60437;BME280;46289;51.992;4.498;2022-11-15T06:14:25;100790.97;;;9.16;100.00
60437;BME280;46289;51.992;4.498;2022-11-15T06:17:13;100791.88;;;9.18;100.00
60437;BME280;46289;51.992;4.498;2022-11-15T06:20:12;100790.88;;;9.11;100.00
60437;BME280;46289;51.992;4.498;2022-11-15T06:23:01;100795.13;;;9.05;100.00
60437;BME280;46289;51.992;4.498;2022-11-15T06:25:38;100794.19;;;9.01;100.00
60437;BME280;46289;51.992;4.498;2022-11-15T06:28:33;100800.19;;;8.96;100.00
60437;BME280;46289;51.992;4.498;2022-11-15T06:31:30;100795.69;;;8.89;100.00
60437;BME280;46289;51.992;4.498;2022-11-15T06:34:04;100798.22;;;8.84;100.00
60437;BME280;46289;51.992;4.498;2022-11-15T06:36:38;100795.53;;;8.81;100.00
60437;BME280;46289;51.992;4.498;2022-11-15T06:39:08;100791.06;;;8.75;100.00
60437;BME280;46289;51.992;4.498;2022-11-15T06:41:48;100796.53;;;8.88;100.00
60437;BME280;46289;51.992;4.498;2022-11-15T06:44:28;100794.53;;;8.74;100.00
60437;BME280;46289;51.992;4.498;2022-11-15T06:47:11;100803.13;;;8.69;100.00
60437;BME280;46289;51.992;4.498;2022-11-15T06:49:43;100814.41;;;8.66;100.00
60437;BME280;46289;51.992;4.498;2022-11-15T06:52:20;100813.56;;;8.67;100.00
60437;BME280;46289;51.992;4.498;2022-11-15T06:54:53;100822.34;;;8.71;100.00
60437;BME280;46289;51.992;4.498;2022-11-15T06:57:48;100808.38;;;8.70;100.00
60437;BME280;46289;51.992;4.498;2022-11-15T07:00:28;100807.56;;;8.73;100.00
60437;BME280;46289;51.992;4.498;2022-11-15T07:03:19;100807.59;;;8.74;100.00
60437;BME280;46289;51.992;4.498;2022-11-15T07:06:06;100810.19;;;8.73;100.00
60437;BME280;46289;51.992;4.498;2022-11-15T07:08:45;100816.34;;;8.76;100.00
60437;BME280;46289;51.992;4.498;2022-11-15T07:11:22;100811.03;;;8.72;100.00
60437;BME280;46289;51.992;4.498;2022-11-15T07:13:59;100806.56;;;8.66;100.00
60437;BME280;46289;51.992;4.498;2022-11-15T07:16:43;100807.56;;;8.73;100.00
60437;BME280;46289;51.992;4.498;2022-11-15T07:19:27;100813.69;;;8.73;100.00
60437;BME280;46289;51.992;4.498;2022-11-15T07:21:58;100818.81;;;8.69;100.00
60437;BME280;46289;51.992;4.498;2022-11-15T07:24:36;100817.28;;;8.78;100.00
60437;BME280;46289;51.992;4.498;2022-11-15T07:27:24;100819.09;;;8.82;100.00
60437;BME280;46289;51.992;4.498;2022-11-15T07:30:00;100812.97;;;8.82;100.00
60437;BME280;46289;51.992;4.498;2022-11-15T07:35:31;100805.03;;;8.77;100.00
60437;BME280;46289;51.992;4.498;2022-11-15T07:38:11;100806.78;;;8.77;100.00
60437;BME280;46289;51.992;4.498;2022-11-15T07:40:58;100810.16;;;8.71;100.00
60437;BME280;46289;51.992;4.498;2022-11-15T07:43:37;100809.38;;;8.75;100.00
60437;BME280;46289;51.992;4.498;2022-11-15T07:49:03;100795.47;;;8.78;100.00
60437;BME280;46289;51.992;4.498;2022-11-15T07:52:06;100801.44;;;8.71;100.00
60437;BME280;46289;51.992;4.498;2022-11-15T07:54:50;100796.16;;;8.69;100.00
60437;BME280;46289;51.992;4.498;2022-11-15T07:57:41;100791.00;;;8.72;100.00
60437;BME280;46289;51.992;4.498;2022-11-15T08:00:22;100791.84;;;8.71;100.00
60437;BME280;46289;51.992;4.498;2022-11-15T08:03:04;100783.09;;;8.69;100.00
60437;BME280;46289;51.992;4.498;2022-11-15T08:05:40;100786.53;;;8.67;100.00
60437;BME280;46289;51.992;4.498;2022-11-15T08:08:15;100776.09;;;8.68;100.00
60437;BME280;46289;51.992;4.498;2022-11-15T08:11:06;100778.84;;;8.74;100.00
60437;BME280;46289;51.992;4.498;2022-11-15T08:13:47;100773.81;;;8.85;100.00
60437;BME280;46289;51.992;4.498;2022-11-15T08:16:18;100774.69;;;8.85;100.00
60437;BME280;46289;51.992;4.498;2022-11-15T08:18:47;100780.81;;;8.86;100.00
60437;BME280;46289;51.992;4.498;2022-11-15T08:21:19;100776.50;;;8.88;100.00
60437;BME280;46289;51.992;4.498;2022-11-15T08:23:50;100763.41;;;8.88;100.00
60437;BME280;46289;51.992;4.498;2022-11-15T08:26:20;100770.50;;;8.94;100.00
60437;BME280;46289;51.992;4.498;2022-11-15T08:28:54;100774.03;;;8.96;100.00
60437;BME280;46289;51.992;4.498;2022-11-15T08:31:23;100758.44;;;9.02;100.00
60437;BME280;46289;51.992;4.498;2022-11-15T08:33:53;100767.31;;;9.10;100.00
60437;BME280;46289;51.992;4.498;2022-11-15T08:36:23;100761.09;;;9.03;100.00
60437;BME280;46289;51.992;4.498;2022-11-15T08:38:56;100758.50;;;9.05;100.00
60437;BME280;46289;51.992;4.498;2022-11-15T08:41:30;100753.31;;;9.08;100.00
60437;BME280;46289;51.992;4.498;2022-11-15T08:44:02;100753.38;;;9.11;100.00
60437;BME280;46289;51.992;4.498;2022-11-15T08:46:33;100747.31;;;9.13;100.00
60437;BME280;46289;51.992;4.498;2022-11-15T08:49:03;100748.16;;;9.12;100.00
60437;BME280;46289;51.992;4.498;2022-11-15T08:51:33;100760.44;;;9.15;100.00
60437;BME280;46289;51.992;4.498;2022-11-15T08:54:03;100756.84;;;9.10;100.00
60437;BME280;46289;51.992;4.498;2022-11-15T08:56:33;100749.78;;;9.06;100.00
60437;BME280;46289;51.992;4.498;2022-11-15T08:59:06;100750.72;;;9.09;100.00
60437;BME280;46289;51.992;4.498;2022-11-15T09:01:36;100756.09;;;9.17;100.00
60437;BME280;46289;51.992;4.498;2022-11-15T09:04:06;100759.63;;;9.19;100.00
60437;BME280;46289;51.992;4.498;2022-11-15T09:06:38;100758.91;;;9.28;100.00
60437;BME280;46289;51.992;4.498;2022-11-15T09:09:08;100748.47;;;9.29;100.00
60437;BME280;46289;51.992;4.498;2022-11-15T09:11:38;100753.75;;;9.32;100.00
60437;BME280;46289;51.992;4.498;2022-11-15T09:14:10;100746.81;;;9.37;100.00
60437;BME280;46289;51.992;4.498;2022-11-15T09:16:41;100743.34;;;9.35;100.00
60437;BME280;46289;51.992;4.498;2022-11-15T09:19:11;100743.31;;;9.37;100.00
60437;BME280;46289;51.992;4.498;2022-11-15T09:21:48;100748.78;;;9.50;100.00
60437;BME280;46289;51.992;4.498;2022-11-15T09:24:18;100745.25;;;9.48;100.00
60437;BME280;46289;51.992;4.498;2022-11-15T09:26:49;100752.31;;;9.52;100.00
60437;BME280;46289;51.992;4.498;2022-11-15T09:29:25;100755.94;;;9.61;100.00
60437;BME280;46289;51.992;4.498;2022-11-15T09:31:55;100754.25;;;9.66;100.00
60437;BME280;46289;51.992;4.498;2022-11-15T09:34:26;100753.53;;;9.74;100.00
60437;BME280;46289;51.992;4.498;2022-11-15T09:36:59;100743.16;;;9.82;100.00
60437;BME280;46289;51.992;4.498;2022-11-15T09:39:32;100747.50;;;9.80;100.00
60437;BME280;46289;51.992;4.498;2022-11-15T09:42:20;100740.53;;;9.82;100.00
60437;BME280;46289;51.992;4.498;2022-11-15T09:45:16;100740.59;;;9.85;100.00
60437;BME280;46289;51.992;4.498;2022-11-15T09:48:09;100733.59;;;9.86;100.00
60437;BME280;46289;51.992;4.498;2022-11-15T09:50:48;100743.31;;;9.93;100.00
60437;BME280;46289;51.992;4.498;2022-11-15T09:53:22;100727.66;;;9.97;100.00
60437;BME280;46289;51.992;4.498;2022-11-15T09:56:18;100731.25;;;10.04;100.00
60437;BME280;46289;51.992;4.498;2022-11-15T09:58:54;100716.47;;;10.09;100.00
60437;BME280;46289;51.992;4.498;2022-11-15T10:01:37;100710.44;;;10.14;100.00
60437;BME280;46289;51.992;4.498;2022-11-15T10:04:10;100702.59;;;10.18;100.00
60437;BME280;46289;51.992;4.498;2022-11-15T10:06:43;100714.09;;;10.26;100.00
60437;BME280;46289;51.992;4.498;2022-11-15T10:09:21;100713.06;;;10.14;100.00
60437;BME280;46289;51.992;4.498;2022-11-15T10:11:55;100702.72;;;10.24;100.00
60437;BME280;46289;51.992;4.498;2022-11-15T10:14:34;100713.25;;;10.27;100.00
60437;BME280;46289;51.992;4.498;2022-11-15T10:17:21;100708.94;;;10.32;100.00
60437;BME280;46289;51.992;4.498;2022-11-15T10:20:05;100706.31;;;10.32;100.00
60437;BME280;46289;51.992;4.498;2022-11-15T10:22:44;100709.88;;;10.37;100.00
60437;BME280;46289;51.992;4.498;2022-11-15T10:25:21;100692.47;;;10.45;100.00
60437;BME280;46289;51.992;4.498;2022-11-15T10:27:59;100695.22;;;10.57;100.00
60437;BME280;46289;51.992;4.498;2022-11-15T10:30:33;100692.69;;;10.66;100.00
60437;BME280;46289;51.992;4.498;2022-11-15T10:33:30;100669.13;;;10.69;100.00
60437;BME280;46289;51.992;4.498;2022-11-15T10:36:24;100660.41;;;10.72;100.00
60437;BME280;46289;51.992;4.498;2022-11-15T10:38:58;100657.75;;;10.70;100.00
60437;BME280;46289;51.992;4.498;2022-11-15T10:41:40;100655.19;;;10.75;100.00
60437;BME280;46289;51.992;4.498;2022-11-15T10:44:25;100649.03;;;10.71;100.00
60437;BME280;46289;51.992;4.498;2022-11-15T10:47:21;100675.16;;;10.62;100.00
60437;BME280;46289;51.992;4.498;2022-11-15T10:50:30;100648.09;;;10.65;100.00
60437;BME280;46289;51.992;4.498;2022-11-15T10:53:04;100659.41;;;10.59;100.00
60437;BME280;46289;51.992;4.498;2022-11-15T10:55:47;100655.09;;;10.64;100.00
60437;BME280;46289;51.992;4.498;2022-11-15T10:58:27;100645.44;;;10.62;100.00
60437;BME280;46289;51.992;4.498;2022-11-15T11:01:12;100647.19;;;10.61;100.00
60437;BME280;46289;51.992;4.498;2022-11-15T11:04:00;100646.44;;;10.76;100.00
60437;BME280;46289;51.992;4.498;2022-11-15T11:06:54;100635.94;;;10.73;100.00
60437;BME280;46289;51.992;4.498;2022-11-15T11:10:04;100631.59;;;10.76;100.00
60437;BME280;46289;51.992;4.498;2022-11-15T11:13:12;100616.00;;;10.95;100.00
60437;BME280;46289;51.992;4.498;2022-11-15T11:15:54;100615.19;;;11.00;100.00
60437;BME280;46289;51.992;4.498;2022-11-15T11:18:38;100602.97;;;11.04;100.00
60437;BME280;46289;51.992;4.498;2022-11-15T11:21:38;100596.84;;;11.05;100.00
60437;BME280;46289;51.992;4.498;2022-11-15T11:24:28;100585.53;;;11.13;100.00
60437;BME280;46289;51.992;4.498;2022-11-15T11:27:21;100590.78;;;11.13;100.00
60437;BME280;46289;51.992;4.498;2022-11-15T11:30:09;100580.31;;;11.17;100.00
60437;BME280;46289;51.992;4.498;2022-11-15T11:33:07;100582.06;;;11.18;100.00
60437;BME280;46289;51.992;4.498;2022-11-15T11:35:53;100592.59;;;11.21;100.00
60437;BME280;46289;51.992;4.498;2022-11-15T11:38:44;100574.19;;;11.19;100.00
60437;BME280;46289;51.992;4.498;2022-11-15T11:41:41;100569.88;;;11.24;100.00
60437;BME280;46289;51.992;4.498;2022-11-15T11:44:32;100567.28;;;11.30;100.00
60437;BME280;46289;51.992;4.498;2022-11-15T11:47:13;100550.66;;;11.31;100.00
60437;BME280;46289;51.992;4.498;2022-11-15T11:49:49;100561.13;;;11.27;100.00
60437;BME280;46289;51.992;4.498;2022-11-15T11:52:28;100541.88;;;11.29;100.00
60437;BME280;46289;51.992;4.498;2022-11-15T11:55:12;100550.66;;;11.33;100.00
60437;BME280;46289;51.992;4.498;2022-11-15T11:57:55;100530.56;;;11.39;100.00
60437;BME280;46289;51.992;4.498;2022-11-15T12:00:39;100537.63;;;11.60;100.00
60437;BME280;46289;51.992;4.498;2022-11-15T12:03:16;100523.66;;;11.72;100.00
60437;BME280;46289;51.992;4.498;2022-11-15T12:05:53;100514.94;;;11.76;100.00
60437;BME280;46289;51.992;4.498;2022-11-15T12:08:31;100502.66;;;11.72;100.00
60437;BME280;46289;51.992;4.498;2022-11-15T12:11:09;100499.22;;;11.88;100.00
60437;BME280;46289;51.992;4.498;2022-11-15T12:13:44;100497.50;;;11.95;100.00
60437;BME280;46289;51.992;4.498;2022-11-15T12:16:22;100500.16;;;12.08;100.00
60437;BME280;46289;51.992;4.498;2022-11-15T12:19:00;100484.38;;;12.13;100.00
60437;BME280;46289;51.992;4.498;2022-11-15T12:21:35;100487.03;;;12.22;100.00
60437;BME280;46289;51.992;4.498;2022-11-15T12:24:11;100491.38;;;11.96;100.00
60437;BME280;46289;51.992;4.498;2022-11-15T12:26:47;100485.25;;;12.04;100.00
60437;BME280;46289;51.992;4.498;2022-11-15T12:29:28;100482.63;;;12.09;100.00
60437;BME280;46289;51.992;4.498;2022-11-15T12:32:01;100467.75;;;12.16;100.00
60437;BME280;46289;51.992;4.498;2022-11-15T12:34:38;100471.25;;;12.11;100.00
60437;BME280;46289;51.992;4.498;2022-11-15T12:37:44;100469.50;;;12.23;100.00
60437;BME280;46289;51.992;4.498;2022-11-15T12:40:27;100458.09;;;12.18;100.00
60437;BME280;46289;51.992;4.498;2022-11-15T12:45:48;100457.22;;;12.14;100.00
60437;BME280;46289;51.992;4.498;2022-11-15T12:52:07;100437.94;;;12.10;100.00
60437;BME280;46289;51.992;4.498;2022-11-15T12:54:59;100436.19;;;11.97;100.00
60437;BME280;46289;51.992;4.498;2022-11-15T13:16:24;100395.88;;;11.80;100.00
60437;BME280;46289;51.992;4.498;2022-11-15T13:19:26;100389.75;;;11.87;100.00
60437;BME280;46289;51.992;4.498;2022-11-15T13:23:21;100391.50;;;11.81;100.00
60437;BME280;46289;51.992;4.498;2022-11-15T13:26:52;100408.09;;;11.76;100.00
60437;BME280;46289;51.992;4.498;2022-11-15T13:29:56;100384.44;;;11.72;100.00
60437;BME280;46289;51.992;4.498;2022-11-15T13:32:45;100376.53;;;11.64;100.00
60437;BME280;46289;51.992;4.498;2022-11-15T13:35:21;100373.94;;;11.67;100.00
60437;BME280;46289;51.992;4.498;2022-11-15T13:37:52;100365.16;;;11.62;100.00
60437;BME280;46289;51.992;4.498;2022-11-15T13:40:26;100377.41;;;11.62;100.00
60437;BME280;46289;51.992;4.498;2022-11-15T13:42:59;100359.03;;;11.59;100.00
60437;BME280;46289;51.992;4.498;2022-11-15T13:45:43;100362.53;;;11.55;100.00
60437;BME280;46289;51.992;4.498;2022-11-15T13:48:12;100352.91;;;11.55;100.00
60437;BME280;46289;51.992;4.498;2022-11-15T13:50:42;100350.25;;;11.54;100.00
60437;BME280;46289;51.992;4.498;2022-11-15T13:53:12;100339.75;;;11.52;100.00
60437;BME280;46289;51.992;4.498;2022-11-15T13:55:42;100331.00;;;11.52;100.00
60437;BME280;46289;51.992;4.498;2022-11-15T13:58:15;100331.03;;;11.64;100.00
60437;BME280;46289;51.992;4.498;2022-11-15T14:00:59;100323.13;;;11.55;100.00
60437;BME280;46289;51.992;4.498;2022-11-15T14:03:32;100311.75;;;11.53;100.00
60437;BME280;46289;51.992;4.498;2022-11-15T14:06:08;100301.25;;;11.54;100.00
60437;BME280;46289;51.992;4.498;2022-11-15T14:08:38;100302.13;;;11.64;100.00
60437;BME280;46289;51.992;4.498;2022-11-15T14:11:13;100294.25;;;11.55;100.00
60437;BME280;46289;51.992;4.498;2022-11-15T14:14:13;100294.25;;;11.53;100.00
60437;BME280;46289;51.992;4.498;2022-11-15T14:16:45;100288.13;;;11.53;100.00
60437;BME280;46289;51.992;4.498;2022-11-15T14:19:37;100288.09;;;11.46;100.00
60437;BME280;46289;51.992;4.498;2022-11-15T14:25:05;100274.09;;;11.51;100.00
60437;BME280;46289;51.992;4.498;2022-11-15T14:27:36;100265.34;;;11.48;100.00
60437;BME280;46289;51.992;4.498;2022-11-15T14:30:13;100264.47;;;11.53;100.00
60437;BME280;46289;51.992;4.498;2022-11-15T14:32:45;100264.47;;;11.56;100.00
60437;BME280;46289;51.992;4.498;2022-11-15T14:35:19;100258.34;;;11.52;100.00
60437;BME280;46289;51.992;4.498;2022-11-15T14:37:49;100249.59;;;11.55;100.00
60437;BME280;46289;51.992;4.498;2022-11-15T14:40:20;100246.97;;;11.52;100.00
60437;BME280;46289;51.992;4.498;2022-11-15T14:42:51;100246.97;;;11.55;100.00
60437;BME280;46289;51.992;4.498;2022-11-15T14:45:23;100244.34;;;11.50;100.00
60437;BME280;46289;51.992;4.498;2022-11-15T14:47:52;100246.09;;;11.54;100.00